Time;durP1;ratioP1;P1;durP2;ratioP2;P2;SDS_P1;SDS_P2;PMS_P1;PMS_P2;Temp;Humidity;BMP_temperature;BMP_pressure;BME280_temperature;BME280_humidity;BME280_pressure;Samples;Min_cycle;Max_cycle;Signal;HPM_P1;HPM_P2
2021/09/27 05:40:08;;;;;;;3.40;1.30;;;16.00;99.90;;;;;;4975725;28;20045;-95
2021/09/27 05:42:53;;;;;;;4.32;1.27;;;16.00;99.90;;;;;;4964449;28;20125;-94
2021/09/27 05:45:34;;;;;;;5.63;1.80;;;15.90;99.90;;;;;;4963100;28;20038;-96
2021/09/27 05:48:18;;;;;;;5.28;1.52;;;15.80;99.90;;;;;;4960849;28;20023;-95
2021/09/27 05:51:09;;;;;;;3.55;1.13;;;15.80;99.90;;;;;;4960922;28;20039;-96
2021/09/27 05:53:47;;;;;;;5.28;1.15;;;15.80;99.90;;;;;;4960228;28;20488;-96
2021/09/27 05:56:30;;;;;;;7.25;1.83;;;15.70;99.90;;;;;;4959543;28;20045;-96
2021/09/27 05:59:10;;;;;;;4.63;1.50;;;15.80;99.90;;;;;;4976272;28;20023;-94
2021/09/27 06:01:58;;;;;;;6.28;1.40;;;15.70;99.90;;;;;;4959098;28;20034;-94
2021/09/27 06:05:05;;;;;;;9.93;1.73;;;15.70;99.90;;;;;;4960115;28;20069;-95
2021/09/27 06:08:01;;;;;;;9.05;2.47;;;15.70;99.90;;;;;;4959607;28;20030;-95
2021/09/27 06:10:34;;;;;;;5.93;1.42;;;15.70;99.90;;;;;;4961516;28;20027;-96
2021/09/27 06:13:08;;;;;;;7.80;1.50;;;15.70;99.90;;;;;;4973523;28;20087;-94
2021/09/27 06:15:41;;;;;;;2.97;1.20;;;15.60;99.90;;;;;;4960275;28;20031;-95
2021/09/27 06:18:28;;;;;;;7.80;1.35;;;15.60;99.90;;;;;;4960217;28;20491;-95
2021/09/27 06:21:18;;;;;;;6.43;1.80;;;15.60;99.90;;;;;;4961319;28;20086;-96
2021/09/27 06:24:01;;;;;;;7.75;2.45;;;15.60;99.90;;;;;;4954237;28;20054;-95
2021/09/27 06:26:30;;;;;;;2.30;1.00;;;15.50;99.90;;;;;;4972323;28;20023;-95
2021/09/27 06:28:59;;;;;;;5.68;1.40;;;15.50;99.90;;;;;;4971062;28;20021;-92
2021/09/27 06:31:45;;;;;;;7.10;2.15;;;15.50;99.90;;;;;;4969291;28;20030;-95
2021/09/27 06:34:21;;;;;;;6.65;1.73;;;15.50;99.90;;;;;;4965455;28;20027;-95
2021/09/27 06:36:47;;;;;;;6.82;1.60;;;15.40;99.90;;;;;;4963480;28;20027;-93
2021/09/27 06:39:27;;;;;;;8.60;1.50;;;15.40;99.90;;;;;;4958824;28;20135;-95
2021/09/27 06:41:59;;;;;;;7.50;1.38;;;15.40;99.90;;;;;;4970481;28;20075;-95
2021/09/27 06:44:24;;;;;;;8.65;2.05;;;15.40;99.90;;;;;;4953833;28;20039;-93
2021/09/27 06:46:52;;;;;;;5.78;0.60;;;15.40;99.90;;;;;;4956857;28;20027;-92
2021/09/27 06:49:18;;;;;;;3.72;0.50;;;15.20;99.90;;;;;;4958555;28;20026;-94
2021/09/27 06:51:45;;;;;;;2.03;0.20;;;14.80;99.90;;;;;;4958984;28;20065;-90
2021/09/27 06:54:12;;;;;;;3.22;0.40;;;14.30;99.90;;;;;;4959174;28;20058;-90
2021/09/27 06:56:39;;;;;;;0.88;0.22;;;13.90;99.90;;;;;;4958998;28;20042;-93
2021/09/27 06:59:05;;;;;;;1.23;0.47;;;13.60;99.90;;;;;;4958287;28;20023;-92
2021/09/27 07:01:31;;;;;;;0.75;0.30;;;13.20;99.90;;;;;;4958199;28;20046;-92
2021/09/27 07:03:57;;;;;;;0.90;0.13;;;13.10;99.90;;;;;;4958064;28;20493;-94
2021/09/27 07:06:28;;;;;;;1.77;0.30;;;12.90;99.90;;;;;;4960614;28;20037;-94
2021/09/27 07:08:55;;;;;;;0.32;0.10;;;12.80;99.90;;;;;;4957994;28;20019;-93
2021/09/27 07:11:24;;;;;;;1.10;0.20;;;12.70;99.90;;;;;;4959182;28;20130;-95
2021/09/27 07:13:50;;;;;;;4.55;0.17;;;12.70;99.90;;;;;;4958648;28;20103;-95
2021/09/27 07:16:16;;;;;;;0.65;0.10;;;12.60;99.90;;;;;;4942700;28;20034;-95
2021/09/27 07:18:42;;;;;;;1.55;0.30;;;12.50;99.90;;;;;;4958091;28;20030;-93
2021/09/27 07:21:10;;;;;;;1.13;0.10;;;12.40;99.90;;;;;;4957994;28;20030;-94
2021/09/27 07:23:40;;;;;;;0.75;0.10;;;12.30;99.90;;;;;;4957394;28;20047;-93
2021/09/27 07:26:11;;;;;;;2.30;0.22;;;12.30;99.90;;;;;;4972726;28;20039;-96
2021/09/27 07:31:37;;;;;;;2.17;0.20;;;12.10;99.90;;;;;;4992101;28;20066;-96
2021/09/27 07:34:06;;;;;;;0.75;0.08;;;12.00;99.90;;;;;;4979171;28;20023;-96
2021/09/27 07:36:33;;;;;;;0.68;0.10;;;12.10;99.90;;;;;;4977790;28;20074;-95
2021/09/27 07:38:59;;;;;;;0.75;0.20;;;12.00;99.90;;;;;;4957768;28;20046;-93
2021/09/27 07:41:25;;;;;;;0.00;0.00;;;12.00;99.90;;;;;;4959351;28;20049;-94
2021/09/27 07:43:54;;;;;;;1.02;0.00;;;12.10;99.90;;;;;;4960289;28;20076;-93
2021/09/27 07:46:22;;;;;;;0.20;0.20;;;12.00;99.90;;;;;;4966239;28;20015;-95
2021/09/27 07:48:48;;;;;;;0.13;0.10;;;12.00;99.90;;;;;;4963615;28;20033;-94
2021/09/27 07:51:14;;;;;;;1.52;0.10;;;11.90;99.90;;;;;;4956907;28;20023;-95
2021/09/27 07:53:40;;;;;;;0.28;0.10;;;11.80;99.90;;;;;;4957224;28;20141;-93
2021/09/27 07:56:07;;;;;;;0.05;0.03;;;11.80;99.90;;;;;;4957303;28;20026;-96
2021/09/27 07:58:33;;;;;;;0.30;0.20;;;11.80;99.90;;;;;;4957903;28;20390;-95
2021/09/27 08:00:59;;;;;;;0.03;0.03;;;11.90;99.90;;;;;;4958818;28;20030;-95
2021/09/27 08:03:24;;;;;;;0.10;0.10;;;11.80;99.90;;;;;;5090659;23;20039;-95
2021/09/27 08:05:56;;;;;;;0.20;0.10;;;11.80;99.90;;;;;;4953784;28;20039;-96
2021/09/27 08:08:22;;;;;;;0.10;0.10;;;11.80;99.90;;;;;;4948838;28;20038;-94
2021/09/27 08:11:08;;;;;;;0.93;0.20;;;11.80;99.90;;;;;;4951809;28;20011;-95
2021/09/27 08:16:27;;;;;;;1.20;0.45;;;11.80;99.90;;;;;;5037987;23;20047;-95
2021/09/27 08:18:55;;;;;;;0.30;0.20;;;11.80;99.90;;;;;;4966291;28;20081;-95
2021/09/27 08:21:22;;;;;;;1.23;0.50;;;11.80;99.90;;;;;;4953190;28;20289;-94
2021/09/27 08:23:48;;;;;;;0.75;0.20;;;11.80;99.90;;;;;;4963519;28;20031;-91
2021/09/27 08:26:14;;;;;;;0.57;0.20;;;11.80;99.90;;;;;;4963735;28;20037;-93
2021/09/27 08:28:41;;;;;;;0.40;0.10;;;11.80;99.90;;;;;;4976548;28;20034;-90
2021/09/27 08:31:11;;;;;;;1.08;0.10;;;11.70;99.90;;;;;;4993573;28;20053;-89
2021/09/27 08:33:38;;;;;;;0.17;0.13;;;11.70;99.90;;;;;;4974897;28;20080;-89
2021/09/27 08:36:06;;;;;;;0.52;0.15;;;11.70;99.90;;;;;;4974710;28;20077;-89
2021/09/27 08:38:37;;;;;;;0.40;0.10;;;11.80;99.90;;;;;;4974849;28;20026;-89
2021/09/27 08:41:45;;;;;;;0.75;0.15;;;11.80;99.90;;;;;;4973972;28;20022;-89
2021/09/27 08:44:37;;;;;;;1.30;0.20;;;11.80;99.90;;;;;;4966756;28;20058;-90
2021/09/27 08:47:11;;;;;;;0.17;0.17;;;11.80;99.90;;;;;;4975259;28;20030;-90
2021/09/27 08:49:55;;;;;;;0.85;0.32;;;11.90;99.90;;;;;;4976476;28;20026;-90
2021/09/27 08:52:24;;;;;;;0.70;0.25;;;11.90;99.90;;;;;;4976630;28;20027;-90
2021/09/27 08:54:51;;;;;;;0.52;0.30;;;11.90;99.90;;;;;;4976593;28;20030;-91
2021/09/27 08:57:30;;;;;;;2.15;0.30;;;11.90;99.90;;;;;;4976868;28;20082;-90
2021/09/27 09:00:31;;;;;;;1.10;0.17;;;12.00;99.90;;;;;;4976600;28;20578;-91
2021/09/27 09:03:22;;;;;;;1.27;0.20;;;12.00;99.90;;;;;;4977445;28;20081;-91
2021/09/27 09:05:54;;;;;;;1.23;0.30;;;12.10;99.90;;;;;;4980079;28;20042;-91
2021/09/27 09:08:27;;;;;;;2.55;0.22;;;12.10;99.90;;;;;;4980488;28;20022;-90
2021/09/27 09:11:11;;;;;;;0.32;0.20;;;12.10;99.90;;;;;;4979857;28;20034;-92
2021/09/27 09:13:45;;;;;;;3.40;0.52;;;12.10;99.90;;;;;;4980105;28;20032;-91
2021/09/27 09:16:17;;;;;;;2.95;0.40;;;12.00;99.90;;;;;;4980095;28;20133;-91
2021/09/27 09:18:48;;;;;;;2.20;0.40;;;12.00;99.90;;;;;;4980133;28;20317;-91
2021/09/27 09:21:31;;;;;;;2.78;0.63;;;11.90;99.90;;;;;;4980060;28;20027;-90
2021/09/27 09:24:00;;;;;;;3.22;0.55;;;11.80;99.90;;;;;;4975270;28;20483;-90
2021/09/27 09:26:48;;;;;;;0.65;0.17;;;11.80;99.90;;;;;;4948263;28;20071;-92
2021/09/27 09:29:22;;;;;;;1.98;0.20;;;11.60;99.90;;;;;;4951371;28;20373;-91
2021/09/27 09:32:00;;;;;;;0.08;0.05;;;11.60;99.90;;;;;;4968151;28;20051;-91
2021/09/27 09:34:34;;;;;;;0.00;0.00;;;11.50;99.90;;;;;;4948612;29;20074;-91
2021/09/27 09:37:07;;;;;;;0.68;0.20;;;11.60;99.90;;;;;;4943362;28;20031;-91
2021/09/27 09:39:37;;;;;;;2.78;0.30;;;11.60;99.90;;;;;;4941070;29;20039;-94
2021/09/27 09:42:25;;;;;;;2.90;0.50;;;11.70;99.90;;;;;;4939679;29;20027;-91
2021/09/27 09:44:54;;;;;;;1.58;0.25;;;11.70;99.90;;;;;;4940890;29;20455;-91
2021/09/27 09:47:19;;;;;;;4.97;0.88;;;11.80;99.90;;;;;;4940446;28;20027;-90
2021/09/27 09:50:02;;;;;;;3.92;0.90;;;11.90;99.90;;;;;;4946028;28;20023;-89
2021/09/27 09:52:40;;;;;;;2.17;1.17;;;12.00;99.90;;;;;;4967635;28;20051;-88
2021/09/27 09:55:17;;;;;;;2.35;0.93;;;12.10;99.90;;;;;;4979722;28;20023;-90
2021/09/27 09:57:53;;;;;;;1.92;1.10;;;12.20;99.90;;;;;;4979394;28;20507;-91
2021/09/27 10:00:34;;;;;;;3.42;1.67;;;12.30;99.90;;;;;;4958286;28;20022;-89
2021/09/27 10:03:02;;;;;;;3.35;1.25;;;12.30;99.90;;;;;;4959165;28;20117;-89
2021/09/27 10:05:47;;;;;;;1.30;1.20;;;12.30;99.90;;;;;;4959819;28;20035;-90
2021/09/27 10:08:46;;;;;;;2.45;1.33;;;12.30;99.90;;;;;;4959588;28;20089;-89
2021/09/27 10:11:23;;;;;;;1.05;1.02;;;12.40;99.90;;;;;;4960366;28;20063;-90
2021/09/27 10:13:53;;;;;;;4.70;1.60;;;12.40;99.90;;;;;;4962148;28;20027;-89
2021/09/27 10:16:46;;;;;;;1.85;1.50;;;12.50;99.90;;;;;;4961090;28;20054;-90
2021/09/27 10:19:23;;;;;;;2.88;1.00;;;12.60;99.90;;;;;;4961128;28;20101;-92
2021/09/27 10:22:14;;;;;;;3.03;1.40;;;12.80;99.90;;;;;;4959318;28;20031;-90
2021/09/27 10:24:42;;;;;;;1.73;1.63;;;13.00;99.90;;;;;;4944602;28;20081;-91
2021/09/27 10:27:28;;;;;;;4.68;1.60;;;13.10;99.90;;;;;;4959165;28;20064;-90
2021/09/27 10:29:57;;;;;;;3.90;1.80;;;13.30;99.90;;;;;;4956312;29;20138;-90
2021/09/27 10:32:34;;;;;;;2.05;1.42;;;13.60;99.90;;;;;;4956657;28;20079;-90
2021/09/27 10:35:07;;;;;;;0.82;0.70;;;13.90;99.90;;;;;;4958995;28;20050;-89
2021/09/27 10:37:33;;;;;;;2.97;0.90;;;14.20;99.90;;;;;;4958884;28;20015;-91
2021/09/27 10:39:59;;;;;;;3.08;1.02;;;14.40;99.90;;;;;;4959126;28;20122;-92
2021/09/27 10:42:48;;;;;;;0.63;0.60;;;14.60;99.90;;;;;;4959114;28;20023;-92
2021/09/27 10:45:17;;;;;;;2.15;0.77;;;14.70;99.90;;;;;;4950217;28;20062;-89
2021/09/27 10:47:47;;;;;;;2.00;0.82;;;15.00;99.90;;;;;;4958513;28;20034;-91
2021/09/27 10:50:33;;;;;;;0.98;0.60;;;15.20;99.90;;;;;;4958880;28;20041;-91
2021/09/27 10:53:16;;;;;;;3.95;0.45;;;15.30;99.90;;;;;;4959050;28;20031;-91
2021/09/27 10:56:06;;;;;;;0.57;0.50;;;15.30;99.90;;;;;;4959194;28;20484;-91
2021/09/27 10:58:53;;;;;;;7.03;0.80;;;15.30;99.90;;;;;;4958850;28;20030;-90
2021/09/27 11:01:37;;;;;;;1.65;0.77;;;15.40;99.90;;;;;;4958923;28;20038;-92
2021/09/27 11:04:06;;;;;;;2.65;0.82;;;15.50;99.90;;;;;;4958089;28;20118;-90
2021/09/27 11:06:44;;;;;;;2.42;0.95;;;15.50;99.20;;;;;;4958783;28;20037;-90
2021/09/27 11:09:28;;;;;;;3.08;1.00;;;15.40;98.30;;;;;;4959179;28;20030;-90
2021/09/27 11:11:57;;;;;;;3.20;1.08;;;15.40;98.10;;;;;;4952207;28;20077;-91
2021/09/27 11:14:26;;;;;;;1.13;0.70;;;15.40;98.30;;;;;;4977537;28;20078;-91
2021/09/27 11:17:06;;;;;;;4.82;1.00;;;15.40;98.10;;;;;;4977725;28;20034;-91
2021/09/27 11:19:32;;;;;;;2.63;1.77;;;15.50;98.50;;;;;;4994979;28;20476;-91
2021/09/27 11:22:31;;;;;;;2.17;1.10;;;15.60;98.70;;;;;;4995103;28;20058;-91
2021/09/27 11:25:33;;;;;;;3.65;0.77;;;15.90;98.80;;;;;;4972618;28;20042;-90
2021/09/27 11:28:07;;;;;;;2.08;0.70;;;16.20;97.30;;;;;;4969615;28;20038;-90
2021/09/27 11:31:04;;;;;;;3.42;0.60;;;16.30;96.90;;;;;;4958505;28;20061;-90
2021/09/27 11:33:32;;;;;;;5.35;0.82;;;16.50;96.20;;;;;;4958073;28;20042;-91
2021/09/27 11:36:27;;;;;;;3.42;0.60;;;16.70;95.30;;;;;;4957876;28;20106;-91
2021/09/27 11:39:04;;;;;;;3.63;0.57;;;16.90;94.10;;;;;;4944062;28;20042;-91
2021/09/27 11:41:36;;;;;;;3.72;0.63;;;17.20;94.10;;;;;;4957959;28;20019;-91
2021/09/27 11:44:14;;;;;;;2.40;0.70;;;17.50;93.40;;;;;;4958171;28;20027;-91
2021/09/27 11:46:59;;;;;;;1.30;0.70;;;17.90;93.40;;;;;;4958318;28;20173;-91
2021/09/27 11:49:32;;;;;;;1.42;0.50;;;18.30;91.40;;;;;;4958374;28;20026;-91
2021/09/27 11:52:03;;;;;;;2.75;0.70;;;18.50;89.90;;;;;;4958116;28;20113;-93
2021/09/27 11:54:46;;;;;;;3.28;0.68;;;18.50;83.00;;;;;;4958206;28;20174;-91
2021/09/27 11:57:38;;;;;;;3.55;0.50;;;18.50;83.60;;;;;;4957888;28;20066;-93
2021/09/27 12:00:07;;;;;;;3.45;1.10;;;18.50;80.00;;;;;;4952740;28;20038;-91
2021/09/27 12:03:07;;;;;;;3.75;0.80;;;18.40;79.80;;;;;;4958255;28;20018;-91
2021/09/27 12:05:43;;;;;;;5.68;0.70;;;18.30;79.70;;;;;;4958737;28;20074;-92
2021/09/27 12:08:27;;;;;;;3.35;0.90;;;18.30;79.20;;;;;;4959228;28;20031;-92
2021/09/27 12:11:01;;;;;;;1.38;0.73;;;18.50;80.20;;;;;;4958104;28;20480;-92
2021/09/27 12:13:39;;;;;;;3.22;0.60;;;18.90;81.10;;;;;;4959231;28;20106;-90
2021/09/27 12:16:06;;;;;;;5.57;0.80;;;19.40;79.80;;;;;;4946331;28;20043;-91
2021/09/27 12:18:52;;;;;;;3.03;0.63;;;19.70;77.30;;;;;;4946117;28;20037;-93
2021/09/27 12:21:27;;;;;;;1.05;0.40;;;20.00;77.60;;;;;;4947746;28;20114;-92
2021/09/27 12:24:15;;;;;;;5.22;0.80;;;20.00;72.20;;;;;;4943106;29;20031;-91
2021/09/27 12:26:51;;;;;;;4.80;1.05;;;19.80;72.50;;;;;;4928255;29;20413;-92
2021/09/27 12:29:20;;;;;;;4.32;0.75;;;19.90;73.50;;;;;;4938762;29;20058;-91
2021/09/27 12:32:03;;;;;;;4.10;0.60;;;19.80;72.00;;;;;;4937656;28;20023;-93
2021/09/27 12:34:38;;;;;;;2.75;0.60;;;19.50;72.20;;;;;;4957671;28;20027;-91
2021/09/27 12:37:10;;;;;;;5.55;0.80;;;18.80;72.20;;;;;;4975999;28;20034;-92
2021/09/27 12:39:37;;;;;;;7.00;1.05;;;18.20;75.20;;;;;;4961248;28;20038;-91
2021/09/27 12:42:07;;;;;;;4.07;1.10;;;18.10;78.70;;;;;;4961162;28;20022;-93
2021/09/27 12:44:36;;;;;;;4.05;1.67;;;18.20;81.10;;;;;;4961601;28;20058;-92
2021/09/27 12:47:06;;;;;;;5.28;0.98;;;18.60;82.20;;;;;;4961127;28;20042;-93
2021/09/27 12:49:38;;;;;;;7.80;0.90;;;19.10;81.50;;;;;;4961564;28;20038;-92
2021/09/27 12:52:07;;;;;;;3.10;0.80;;;19.40;80.70;;;;;;4961230;28;20484;-90
2021/09/27 12:54:48;;;;;;;3.28;0.77;;;19.50;76.30;;;;;;4961268;28;20121;-92
2021/09/27 12:57:33;;;;;;;4.43;0.68;;;19.50;75.40;;;;;;4961112;28;20058;-92
2021/09/27 13:00:00;;;;;;;8.10;0.85;;;19.60;73.80;;;;;;4960534;28;20058;-91
2021/09/27 13:02:39;;;;;;;2.80;0.77;;;19.70;73.10;;;;;;4960396;28;20492;-91
2021/09/27 13:05:19;;;;;;;2.97;0.77;;;20.10;73.40;;;;;;4960617;28;20031;-92
2021/09/27 13:07:48;;;;;;;5.15;1.00;;;20.30;70.40;;;;;;4960896;28;20377;-92
2021/09/27 13:10:23;;;;;;;2.95;0.88;;;20.40;69.10;;;;;;4961856;28;20031;-92
2021/09/27 13:13:22;;;;;;;5.20;0.98;;;20.50;68.70;;;;;;4966082;28;20054;-92
2021/09/27 13:16:09;;;;;;;3.38;0.88;;;20.60;68.10;;;;;;4961960;28;20451;-92
2021/09/27 13:18:35;;;;;;;3.15;0.80;;;20.20;67.40;;;;;;4946321;28;20043;-92
2021/09/27 13:21:09;;;;;;;4.80;0.85;;;19.90;67.80;;;;;;4940942;29;20373;-92
2021/09/27 13:23:58;;;;;;;2.25;0.80;;;19.70;68.10;;;;;;4956567;29;20031;-91
2021/09/27 13:26:32;;;;;;;1.98;0.70;;;19.70;68.60;;;;;;4940778;29;20086;-92
2021/09/27 13:29:02;;;;;;;4.90;0.60;;;19.70;69.50;;;;;;4940787;29;20500;-92
2021/09/27 13:31:32;;;;;;;3.70;0.60;;;19.70;68.20;;;;;;4956621;29;20037;-93
2021/09/27 13:34:04;;;;;;;3.97;1.10;;;19.60;68.20;;;;;;4940720;29;20031;-93
2021/09/27 13:36:42;;;;;;;6.10;0.93;;;19.70;68.90;;;;;;4956260;29;20282;-92
2021/09/27 13:39:15;;;;;;;4.22;0.82;;;19.70;69.00;;;;;;4956643;29;20031;-93
2021/09/27 13:41:52;;;;;;;3.25;0.70;;;19.90;69.80;;;;;;4956828;29;20029;-92
2021/09/27 13:44:53;;;;;;;4.03;0.80;;;20.10;70.00;;;;;;4960869;28;20110;-91
2021/09/27 13:47:23;;;;;;;2.70;0.70;;;20.60;69.00;;;;;;4958192;28;20504;-92
2021/09/27 13:49:50;;;;;;;2.15;0.60;;;20.80;67.80;;;;;;4958550;28;20033;-92
2021/09/27 13:52:17;;;;;;;4.43;0.90;;;21.00;67.60;;;;;;4959663;28;20129;-92
2021/09/27 13:54:43;;;;;;;3.08;0.90;;;21.00;66.80;;;;;;4960782;28;20027;-93
2021/09/27 13:57:10;;;;;;;5.70;1.27;;;20.90;66.00;;;;;;4960229;28;20025;-94
2021/09/27 13:59:36;;;;;;;3.95;0.98;;;20.90;66.20;;;;;;4963936;28;20034;-91
2021/09/27 14:02:02;;;;;;;6.32;1.10;;;21.00;66.50;;;;;;4970444;28;20077;-92
2021/09/27 14:04:29;;;;;;;2.92;0.90;;;20.90;66.20;;;;;;4980155;28;20090;-93
2021/09/27 14:06:55;;;;;;;6.53;0.63;;;21.00;65.80;;;;;;4979268;28;20038;-94
2021/09/27 14:09:21;;;;;;;4.80;1.05;;;21.00;65.40;;;;;;4979244;28;20076;-93
2021/09/27 14:11:46;;;;;;;6.20;0.98;;;21.00;65.60;;;;;;4979176;28;20026;-94
2021/09/27 14:14:12;;;;;;;4.20;0.70;;;21.10;65.80;;;;;;4978421;28;20031;-93
2021/09/27 14:16:38;;;;;;;3.05;0.90;;;21.30;65.90;;;;;;4979105;28;20050;-94
2021/09/27 14:19:04;;;;;;;7.05;1.15;;;21.50;65.90;;;;;;4979741;28;20475;-94
2021/09/27 14:21:30;;;;;;;5.80;1.00;;;21.40;65.20;;;;;;4978960;28;20034;-93
2021/09/27 14:23:58;;;;;;;2.97;1.33;;;21.10;65.20;;;;;;4978985;28;20472;-92
2021/09/27 14:26:27;;;;;;;4.35;1.02;;;20.90;65.80;;;;;;4978746;28;20035;-94
2021/09/27 14:28:54;;;;;;;4.68;1.10;;;20.90;65.90;;;;;;4978775;28;20025;-93
2021/09/27 14:31:20;;;;;;;5.88;1.05;;;20.90;65.90;;;;;;4978592;28;20130;-95
2021/09/27 14:33:46;;;;;;;3.33;0.85;;;21.00;66.20;;;;;;4978661;28;20052;-94
2021/09/27 14:36:13;;;;;;;2.45;0.50;;;21.20;66.10;;;;;;4978176;28;20475;-93
2021/09/27 14:38:41;;;;;;;9.70;1.17;;;21.20;65.70;;;;;;4978735;28;20027;-95
2021/09/27 14:41:07;;;;;;;6.55;1.70;;;21.10;65.90;;;;;;4978351;28;20061;-92
2021/09/27 14:43:33;;;;;;;3.47;1.00;;;20.80;65.80;;;;;;4978137;28;20034;-93
2021/09/27 14:46:00;;;;;;;6.82;0.88;;;20.40;66.30;;;;;;4977624;28;20134;-94
2021/09/27 14:48:27;;;;;;;3.28;0.98;;;20.30;66.80;;;;;;4970257;28;20437;-92
2021/09/27 14:50:53;;;;;;;2.78;0.77;;;20.10;67.20;;;;;;4958778;28;20035;-92
2021/09/27 14:53:24;;;;;;;1.83;0.70;;;20.00;67.40;;;;;;4958420;28;20041;-93
2021/09/27 14:55:52;;;;;;;4.78;0.65;;;20.10;67.50;;;;;;4958505;28;20031;-93
2021/09/27 14:58:20;;;;;;;5.75;0.70;;;20.20;66.10;;;;;;4958353;28;20464;-91
2021/09/27 15:00:48;;;;;;;6.75;0.80;;;20.40;65.90;;;;;;4958750;28;20042;-93
2021/09/27 15:03:15;;;;;;;3.50;0.60;;;20.60;64.10;;;;;;4975681;28;20033;-93
2021/09/27 15:05:41;;;;;;;5.97;0.93;;;20.50;63.20;;;;;;4958556;28;20073;-92
2021/09/27 15:08:09;;;;;;;5.15;0.90;;;20.40;63.90;;;;;;4958053;28;20147;-92
2021/09/27 15:10:36;;;;;;;4.20;0.65;;;20.20;64.70;;;;;;4958327;28;20035;-93
2021/09/27 15:13:02;;;;;;;2.42;0.60;;;20.00;64.20;;;;;;4958342;28;20081;-93
2021/09/27 15:15:27;;;;;;;1.10;0.45;;;19.90;64.40;;;;;;4957681;28;20429;-94
2021/09/27 15:17:54;;;;;;;3.08;0.60;;;20.00;64.10;;;;;;4960867;28;20023;-92
2021/09/27 15:20:23;;;;;;;7.15;0.60;;;20.00;62.20;;;;;;4949369;28;20031;-94
2021/09/27 15:22:50;;;;;;;4.28;0.70;;;20.00;61.40;;;;;;4953409;28;20049;-92
2021/09/27 15:25:33;;;;;;;3.83;0.80;;;19.90;61.20;;;;;;4954290;28;20035;-92
2021/09/27 15:27:59;;;;;;;3.13;0.65;;;19.80;61.70;;;;;;4957119;28;20031;-92
2021/09/27 15:30:29;;;;;;;10.38;0.75;;;19.70;61.80;;;;;;4958027;28;20484;-92
2021/09/27 15:32:54;;;;;;;4.47;0.65;;;19.70;61.60;;;;;;4957949;28;20092;-93
2021/09/27 15:35:21;;;;;;;3.80;0.70;;;19.70;62.00;;;;;;4957702;28;20113;-95
2021/09/27 15:37:48;;;;;;;4.30;0.70;;;19.80;62.20;;;;;;4957963;28;20030;-94
2021/09/27 15:40:14;;;;;;;1.83;0.50;;;19.90;62.80;;;;;;4956655;28;20022;-93
2021/09/27 15:42:39;;;;;;;2.20;0.90;;;19.80;62.90;;;;;;4957437;28;20448;-92
2021/09/27 15:45:06;;;;;;;4.30;0.73;;;19.60;63.00;;;;;;4956106;28;20385;-93
2021/09/27 15:47:32;;;;;;;2.60;0.70;;;19.60;63.90;;;;;;4961248;28;20114;-95
2021/09/27 15:49:57;;;;;;;3.30;0.95;;;19.50;64.50;;;;;;4964110;28;20113;-94
2021/09/27 15:52:24;;;;;;;6.20;1.38;;;19.60;65.00;;;;;;4957073;28;20037;-93
2021/09/27 15:54:50;;;;;;;3.90;0.77;;;19.80;64.90;;;;;;4952673;29;20082;-95
2021/09/27 15:57:16;;;;;;;4.75;1.00;;;19.80;64.50;;;;;;4956919;28;20381;-94
2021/09/27 15:59:42;;;;;;;4.40;0.85;;;19.70;64.80;;;;;;4956981;28;20026;-93
2021/09/27 16:02:07;;;;;;;4.38;0.68;;;19.60;65.00;;;;;;4955236;28;20472;-92
2021/09/27 16:04:35;;;;;;;4.50;0.70;;;19.50;65.00;;;;;;4956422;28;20050;-91
2021/09/27 16:07:03;;;;;;;1.90;0.75;;;19.40;65.50;;;;;;4974281;28;20038;-94
2021/09/27 16:09:33;;;;;;;4.63;0.65;;;19.30;65.50;;;;;;4957027;28;20029;-93
2021/09/27 16:12:00;;;;;;;4.72;0.80;;;19.50;65.60;;;;;;4949415;28;20035;-93
2021/09/27 16:14:26;;;;;;;3.42;0.70;;;19.40;65.20;;;;;;4943429;28;20050;-92
2021/09/27 16:16:52;;;;;;;3.35;0.68;;;19.10;64.90;;;;;;4957538;28;20066;-94
2021/09/27 16:19:19;;;;;;;3.75;0.90;;;18.80;65.30;;;;;;4963320;28;20202;-94
2021/09/27 16:21:46;;;;;;;3.83;0.70;;;18.70;66.00;;;;;;4953216;29;20035;-92
2021/09/27 16:24:12;;;;;;;2.92;0.65;;;18.70;65.80;;;;;;4953142;29;20027;-92
2021/09/27 16:26:41;;;;;;;5.90;0.80;;;18.70;65.80;;;;;;4952992;29;20031;-92
2021/09/27 16:29:11;;;;;;;2.10;0.70;;;18.60;65.20;;;;;;4944638;29;20054;-92
2021/09/27 16:32:00;;;;;;;2.65;0.70;;;18.50;65.40;;;;;;4938722;29;20106;-93
2021/09/27 16:34:28;;;;;;;2.00;0.60;;;18.50;65.40;;;;;;4938985;29;20039;-93
2021/09/27 16:36:55;;;;;;;2.88;0.60;;;18.30;65.20;;;;;;4939027;29;20110;-92
2021/09/27 16:39:25;;;;;;;3.60;0.90;;;18.20;65.40;;;;;;4938771;29;20050;-92
2021/09/27 16:41:52;;;;;;;3.00;0.80;;;18.10;65.50;;;;;;4938888;29;20024;-93
2021/09/27 16:44:25;;;;;;;3.22;0.70;;;17.90;65.40;;;;;;4938665;29;20031;-91
2021/09/27 16:46:51;;;;;;;4.35;0.80;;;17.70;66.00;;;;;;4935522;29;20070;-91
2021/09/27 16:49:17;;;;;;;3.70;0.75;;;17.70;67.00;;;;;;4935674;29;20032;-94
2021/09/27 16:51:43;;;;;;;1.52;0.55;;;17.60;67.30;;;;;;4935735;29;20119;-93
2021/09/27 16:54:10;;;;;;;5.38;0.63;;;17.50;67.90;;;;;;4935455;29;20035;-94
2021/09/27 16:56:36;;;;;;;7.45;0.63;;;17.40;68.30;;;;;;4937876;29;20031;-93
2021/09/27 16:59:03;;;;;;;4.53;0.80;;;17.20;68.60;;;;;;4940701;29;20020;-93
2021/09/27 17:01:29;;;;;;;2.58;0.50;;;17.00;69.10;;;;;;4940106;29;20053;-94
2021/09/27 17:03:55;;;;;;;5.53;1.40;;;17.00;69.60;;;;;;4939923;29;20032;-91
2021/09/27 17:06:21;;;;;;;4.55;0.73;;;16.90;69.90;;;;;;4938499;29;20040;-92
2021/09/27 17:08:47;;;;;;;6.07;0.88;;;16.80;69.90;;;;;;4938826;29;20019;-93
2021/09/27 17:11:12;;;;;;;5.20;0.93;;;16.80;70.10;;;;;;4938458;29;20027;-91
2021/09/27 17:13:43;;;;;;;4.65;1.02;;;16.70;70.10;;;;;;4938630;29;20388;-91
2021/09/27 17:18:53;;;;;;;4.20;0.88;;;16.40;69.90;;;;;;4956077;29;20062;-91
2021/09/27 17:21:20;;;;;;;6.18;1.00;;;16.10;70.40;;;;;;4938596;29;20031;-92
2021/09/27 17:23:51;;;;;;;2.25;0.65;;;15.90;71.20;;;;;;4938881;29;20031;-93
2021/09/27 17:26:21;;;;;;;4.57;0.82;;;15.70;71.60;;;;;;4941645;29;20038;-93
2021/09/27 17:28:47;;;;;;;2.33;0.60;;;15.50;72.00;;;;;;4935482;29;20074;-93
2021/09/27 17:31:17;;;;;;;3.22;0.70;;;15.30;72.10;;;;;;4942562;28;20027;-92
2021/09/27 17:33:46;;;;;;;11.20;1.25;;;15.10;72.80;;;;;;4953575;28;20023;-95
2021/09/27 17:36:12;;;;;;;3.90;0.50;;;15.00;73.50;;;;;;4960004;28;20034;-94
2021/09/27 17:38:39;;;;;;;6.05;0.68;;;14.90;73.80;;;;;;4957194;28;20027;-95
2021/09/27 17:41:06;;;;;;;5.50;0.80;;;14.70;74.00;;;;;;4960555;28;20018;-94
2021/09/27 17:43:32;;;;;;;4.85;0.80;;;14.60;74.40;;;;;;4956255;28;20027;-93
2021/09/27 17:45:58;;;;;;;6.38;1.00;;;14.50;74.70;;;;;;4955939;28;20034;-94
2021/09/27 17:48:24;;;;;;;7.60;1.10;;;14.40;75.20;;;;;;4959402;28;20090;-95
2021/09/27 17:50:50;;;;;;;5.65;1.40;;;14.30;75.60;;;;;;4954761;29;20035;-95
2021/09/27 17:53:15;;;;;;;3.97;1.10;;;14.30;76.00;;;;;;4947726;29;20053;-96
2021/09/27 17:55:43;;;;;;;4.40;0.95;;;14.20;76.30;;;;;;4944780;28;20440;-95
2021/09/27 17:58:10;;;;;;;7.93;1.27;;;14.20;76.60;;;;;;4946523;28;20023;-94
2021/09/27 18:00:37;;;;;;;11.48;1.08;;;14.10;76.60;;;;;;4948868;28;20026;-95
2021/09/27 18:03:03;;;;;;;3.47;0.80;;;14.00;76.80;;;;;;4956684;28;20169;-93
2021/09/27 18:05:29;;;;;;;5.78;0.93;;;13.90;77.30;;;;;;4945557;29;20118;-93
2021/09/27 18:07:55;;;;;;;5.32;1.15;;;13.90;77.60;;;;;;4947848;28;20035;-93
2021/09/27 18:10:21;;;;;;;7.25;1.90;;;13.90;77.80;;;;;;4948397;28;20027;-93
2021/09/27 18:12:47;;;;;;;8.70;1.10;;;13.80;78.10;;;;;;4950422;28;20500;-94
2021/09/27 18:15:17;;;;;;;10.65;1.13;;;13.80;78.50;;;;;;4948082;28;20043;-94
2021/09/27 18:17:44;;;;;;;5.90;1.17;;;13.80;78.80;;;;;;4949754;28;20028;-93
2021/09/27 18:20:12;;;;;;;5.70;1.50;;;13.70;79.10;;;;;;4948888;28;20022;-93
2021/09/27 18:22:38;;;;;;;4.38;0.95;;;13.70;79.40;;;;;;4950574;28;20499;-96
2021/09/27 18:25:06;;;;;;;5.88;1.13;;;13.70;79.60;;;;;;4942354;28;20046;-93
2021/09/27 18:27:32;;;;;;;7.93;2.15;;;13.60;79.60;;;;;;4944995;28;20027;-94
2021/09/27 18:29:59;;;;;;;7.10;1.35;;;13.60;79.90;;;;;;4944243;28;20094;-94
2021/09/27 18:32:24;;;;;;;5.15;1.35;;;13.60;80.40;;;;;;4945482;28;20122;-93
2021/09/27 18:34:50;;;;;;;8.65;1.65;;;13.60;80.60;;;;;;4947764;28;20472;-94
2021/09/27 18:37:16;;;;;;;9.90;0.90;;;13.50;80.60;;;;;;4946321;28;20145;-95
2021/09/27 18:39:41;;;;;;;8.80;1.55;;;13.40;81.00;;;;;;4949911;28;20094;-95
2021/09/27 18:42:07;;;;;;;4.80;1.05;;;13.40;81.40;;;;;;4951944;28;20023;-96
2021/09/27 18:44:33;;;;;;;8.00;1.67;;;13.30;81.60;;;;;;4948596;28;20042;-95
2021/09/27 18:46:58;;;;;;;7.97;0.90;;;13.30;82.00;;;;;;4952024;28;20105;-96
2021/09/27 18:49:25;;;;;;;3.42;1.17;;;13.20;82.20;;;;;;4946389;28;20027;-95
2021/09/27 18:51:51;;;;;;;4.40;0.88;;;13.20;82.70;;;;;;4951496;28;20031;-95
2021/09/27 18:54:18;;;;;;;4.85;0.80;;;13.10;82.80;;;;;;4951319;28;20376;-95
2021/09/27 18:56:44;;;;;;;5.57;0.73;;;13.00;82.90;;;;;;4951313;28;20374;-96
2021/09/27 18:59:10;;;;;;;5.10;1.10;;;13.00;83.10;;;;;;4951243;28;20023;-95